sensor_id;sensor_type;location;lat;lon;timestamp;temperature;humidity
69589;SHT31;56792;50.644;17.984;2023-06-26T00:01:56;15.24;78.74
69589;SHT31;56792;50.644;17.984;2023-06-26T00:04:24;15.18;78.87
69589;SHT31;56792;50.644;17.984;2023-06-26T00:06:52;15.14;78.90
69589;SHT31;56792;50.644;17.984;2023-06-26T00:09:20;15.08;78.97
69589;SHT31;56792;50.644;17.984;2023-06-26T00:11:48;15.05;79.10
69589;SHT31;56792;50.644;17.984;2023-06-26T00:14:17;15.02;79.16
69589;SHT31;56792;50.644;17.984;2023-06-26T00:16:46;14.99;79.26
69589;SHT31;56792;50.644;17.984;2023-06-26T00:19:15;14.97;79.53
69589;SHT31;56792;50.644;17.984;2023-06-26T00:21:44;14.95;79.66
69589;SHT31;56792;50.644;17.984;2023-06-26T00:24:13;14.91;79.71
69589;SHT31;56792;50.644;17.984;2023-06-26T00:26:42;14.90;79.70
69589;SHT31;56792;50.644;17.984;2023-06-26T00:29:11;14.87;79.61
69589;SHT31;56792;50.644;17.984;2023-06-26T00:31:40;14.84;79.59
69589;SHT31;56792;50.644;17.984;2023-06-26T00:34:08;14.80;79.68
69589;SHT31;56792;50.644;17.984;2023-06-26T00:36:36;14.76;79.82
69589;SHT31;56792;50.644;17.984;2023-06-26T00:39:05;14.76;79.87
69589;SHT31;56792;50.644;17.984;2023-06-26T00:41:33;14.77;79.76
69589;SHT31;56792;50.644;17.984;2023-06-26T00:44:03;14.74;79.73
69589;SHT31;56792;50.644;17.984;2023-06-26T00:46:31;14.70;79.87
69589;SHT31;56792;50.644;17.984;2023-06-26T00:49:02;14.66;79.96
69589;SHT31;56792;50.644;17.984;2023-06-26T00:51:31;14.64;80.01
69589;SHT31;56792;50.644;17.984;2023-06-26T00:53:59;14.59;80.07
69589;SHT31;56792;50.644;17.984;2023-06-26T00:56:28;14.57;80.10
69589;SHT31;56792;50.644;17.984;2023-06-26T00:58:57;14.56;80.19
69589;SHT31;56792;50.644;17.984;2023-06-26T01:01:26;14.56;80.16
69589;SHT31;56792;50.644;17.984;2023-06-26T01:03:54;14.55;80.29
69589;SHT31;56792;50.644;17.984;2023-06-26T01:06:24;14.53;80.49
69589;SHT31;56792;50.644;17.984;2023-06-26T01:08:58;14.48;80.46
69589;SHT31;56792;50.644;17.984;2023-06-26T01:11:26;14.43;80.38
69589;SHT31;56792;50.644;17.984;2023-06-26T01:13:55;14.39;80.56
69589;SHT31;56792;50.644;17.984;2023-06-26T01:16:27;14.38;80.71
69589;SHT31;56792;50.644;17.984;2023-06-26T01:18:57;14.34;80.75
69589;SHT31;56792;50.644;17.984;2023-06-26T01:21:26;14.30;80.71
69589;SHT31;56792;50.644;17.984;2023-06-26T01:24:01;14.25;80.80
69589;SHT31;56792;50.644;17.984;2023-06-26T01:26:41;14.21;80.83
69589;SHT31;56792;50.644;17.984;2023-06-26T01:29:14;14.17;80.69
69589;SHT31;56792;50.644;17.984;2023-06-26T01:31:44;14.11;80.74
69589;SHT31;56792;50.644;17.984;2023-06-26T01:34:15;14.08;80.91
69589;SHT31;56792;50.644;17.984;2023-06-26T01:36:44;14.07;80.98
69589;SHT31;56792;50.644;17.984;2023-06-26T01:39:14;14.05;80.83
69589;SHT31;56792;50.644;17.984;2023-06-26T01:41:44;14.00;80.96
69589;SHT31;56792;50.644;17.984;2023-06-26T01:44:16;13.98;81.17
69589;SHT31;56792;50.644;17.984;2023-06-26T01:46:55;13.95;81.20
69589;SHT31;56792;50.644;17.984;2023-06-26T01:49:31;13.94;81.12
69589;SHT31;56792;50.644;17.984;2023-06-26T01:52:09;13.91;80.92
69589;SHT31;56792;50.644;17.984;2023-06-26T01:54:49;13.89;80.96
69589;SHT31;56792;50.644;17.984;2023-06-26T01:57:26;13.85;80.90
69589;SHT31;56792;50.644;17.984;2023-06-26T01:59:58;13.81;81.03
69589;SHT31;56792;50.644;17.984;2023-06-26T02:02:40;13.78;81.21
69589;SHT31;56792;50.644;17.984;2023-06-26T02:05:12;13.76;81.30
69589;SHT31;56792;50.644;17.984;2023-06-26T02:07:41;13.72;81.27
69589;SHT31;56792;50.644;17.984;2023-06-26T02:10:10;13.68;81.29
69589;SHT31;56792;50.644;17.984;2023-06-26T02:12:39;13.65;81.30
69589;SHT31;56792;50.644;17.984;2023-06-26T02:15:09;13.63;81.30
69589;SHT31;56792;50.644;17.984;2023-06-26T02:17:39;13.61;81.33
69589;SHT31;56792;50.644;17.984;2023-06-26T02:20:07;13.58;81.27
69589;SHT31;56792;50.644;17.984;2023-06-26T02:22:37;13.56;81.20
69589;SHT31;56792;50.644;17.984;2023-06-26T02:25:09;13.55;81.30
69589;SHT31;56792;50.644;17.984;2023-06-26T02:27:38;13.54;81.37
69589;SHT31;56792;50.644;17.984;2023-06-26T02:30:08;13.53;81.42
69589;SHT31;56792;50.644;17.984;2023-06-26T02:32:38;13.55;81.30
69589;SHT31;56792;50.644;17.984;2023-06-26T02:35:07;13.54;81.26
69589;SHT31;56792;50.644;17.984;2023-06-26T02:37:40;13.52;81.25
69589;SHT31;56792;50.644;17.984;2023-06-26T02:40:09;13.49;81.35
69589;SHT31;56792;50.644;17.984;2023-06-26T02:42:38;13.49;81.60
69589;SHT31;56792;50.644;17.984;2023-06-26T02:45:08;13.48;81.78
69589;SHT31;56792;50.644;17.984;2023-06-26T02:47:37;13.50;81.90
69589;SHT31;56792;50.644;17.984;2023-06-26T02:50:06;13.52;81.91
69589;SHT31;56792;50.644;17.984;2023-06-26T02:52:57;13.50;81.87
69589;SHT31;56792;50.644;17.984;2023-06-26T02:55:25;13.49;81.86
69589;SHT31;56792;50.644;17.984;2023-06-26T02:57:54;13.47;81.89
69589;SHT31;56792;50.644;17.984;2023-06-26T03:00:23;13.46;81.88
69589;SHT31;56792;50.644;17.984;2023-06-26T03:02:52;13.45;81.88
69589;SHT31;56792;50.644;17.984;2023-06-26T03:05:22;13.44;81.98
69589;SHT31;56792;50.644;17.984;2023-06-26T03:07:50;13.44;82.08
69589;SHT31;56792;50.644;17.984;2023-06-26T03:10:18;13.48;82.34
69589;SHT31;56792;50.644;17.984;2023-06-26T03:12:47;13.49;82.40
69589;SHT31;56792;50.644;17.984;2023-06-26T03:15:16;13.50;82.46
69589;SHT31;56792;50.644;17.984;2023-06-26T03:17:45;13.52;82.57
69589;SHT31;56792;50.644;17.984;2023-06-26T03:20:18;13.53;82.65
69589;SHT31;56792;50.644;17.984;2023-06-26T03:22:48;13.55;82.66
69589;SHT31;56792;50.644;17.984;2023-06-26T03:25:17;13.57;82.78
69589;SHT31;56792;50.644;17.984;2023-06-26T03:27:46;13.60;83.02
69589;SHT31;56792;50.644;17.984;2023-06-26T03:30:15;13.62;82.95
69589;SHT31;56792;50.644;17.984;2023-06-26T03:32:44;13.62;82.80
69589;SHT31;56792;50.644;17.984;2023-06-26T03:35:13;13.64;82.89
69589;SHT31;56792;50.644;17.984;2023-06-26T03:37:41;13.65;83.04
69589;SHT31;56792;50.644;17.984;2023-06-26T03:40:10;13.68;83.09
69589;SHT31;56792;50.644;17.984;2023-06-26T03:42:38;13.72;83.14
69589;SHT31;56792;50.644;17.984;2023-06-26T03:45:08;13.77;83.15
69589;SHT31;56792;50.644;17.984;2023-06-26T03:47:36;13.83;83.18
69589;SHT31;56792;50.644;17.984;2023-06-26T03:50:06;13.89;83.27
69589;SHT31;56792;50.644;17.984;2023-06-26T03:52:35;13.94;83.31
69589;SHT31;56792;50.644;17.984;2023-06-26T03:55:04;14.00;83.30
69589;SHT31;56792;50.644;17.984;2023-06-26T03:57:34;14.04;83.29
69589;SHT31;56792;50.644;17.984;2023-06-26T04:00:02;14.08;83.30
69589;SHT31;56792;50.644;17.984;2023-06-26T04:02:40;14.11;83.38
69589;SHT31;56792;50.644;17.984;2023-06-26T04:05:09;14.17;83.59
69589;SHT31;56792;50.644;17.984;2023-06-26T04:07:38;14.24;83.53
69589;SHT31;56792;50.644;17.984;2023-06-26T04:10:07;14.29;83.49
69589;SHT31;56792;50.644;17.984;2023-06-26T04:12:36;14.34;83.53
69589;SHT31;56792;50.644;17.984;2023-06-26T04:15:05;14.40;83.65
69589;SHT31;56792;50.644;17.984;2023-06-26T04:17:36;14.48;83.70
69589;SHT31;56792;50.644;17.984;2023-06-26T04:20:05;14.56;83.71
69589;SHT31;56792;50.644;17.984;2023-06-26T04:22:35;14.64;83.70
69589;SHT31;56792;50.644;17.984;2023-06-26T04:25:04;14.71;83.70
69589;SHT31;56792;50.644;17.984;2023-06-26T04:27:33;14.78;83.70
69589;SHT31;56792;50.644;17.984;2023-06-26T04:30:01;14.85;83.75
69589;SHT31;56792;50.644;17.984;2023-06-26T04:32:30;14.92;83.83
69589;SHT31;56792;50.644;17.984;2023-06-26T04:34:59;14.99;83.76
69589;SHT31;56792;50.644;17.984;2023-06-26T04:37:28;15.07;83.74
69589;SHT31;56792;50.644;17.984;2023-06-26T04:39:56;15.14;83.65
69589;SHT31;56792;50.644;17.984;2023-06-26T04:42:25;15.21;83.49
69589;SHT31;56792;50.644;17.984;2023-06-26T04:44:53;15.29;83.52
69589;SHT31;56792;50.644;17.984;2023-06-26T04:47:21;15.37;83.52
69589;SHT31;56792;50.644;17.984;2023-06-26T04:49:49;15.45;83.50
69589;SHT31;56792;50.644;17.984;2023-06-26T04:52:18;15.53;83.48
69589;SHT31;56792;50.644;17.984;2023-06-26T04:54:46;15.62;83.38
69589;SHT31;56792;50.644;17.984;2023-06-26T04:57:14;15.72;83.37
69589;SHT31;56792;50.644;17.984;2023-06-26T04:59:43;15.82;83.32
69589;SHT31;56792;50.644;17.984;2023-06-26T05:02:12;15.89;83.21
69589;SHT31;56792;50.644;17.984;2023-06-26T05:04:40;15.97;83.06
69589;SHT31;56792;50.644;17.984;2023-06-26T05:07:08;16.07;82.99
69589;SHT31;56792;50.644;17.984;2023-06-26T05:09:37;16.16;83.00
69589;SHT31;56792;50.644;17.984;2023-06-26T05:12:06;16.26;82.99
69589;SHT31;56792;50.644;17.984;2023-06-26T05:14:35;16.37;82.87
69589;SHT31;56792;50.644;17.984;2023-06-26T05:17:03;16.47;82.67
69589;SHT31;56792;50.644;17.984;2023-06-26T05:19:32;16.58;82.55
69589;SHT31;56792;50.644;17.984;2023-06-26T05:22:00;16.69;82.29
69589;SHT31;56792;50.644;17.984;2023-06-26T05:24:32;16.81;82.20
69589;SHT31;56792;50.644;17.984;2023-06-26T05:27:03;16.92;82.14
69589;SHT31;56792;50.644;17.984;2023-06-26T05:29:34;17.05;81.76
69589;SHT31;56792;50.644;17.984;2023-06-26T05:32:04;17.18;81.33
69589;SHT31;56792;50.644;17.984;2023-06-26T05:34:35;17.32;81.00
69589;SHT31;56792;50.644;17.984;2023-06-26T05:37:05;17.45;80.81
69589;SHT31;56792;50.644;17.984;2023-06-26T05:39:35;17.59;80.53
69589;SHT31;56792;50.644;17.984;2023-06-26T05:42:05;17.77;80.13
69589;SHT31;56792;50.644;17.984;2023-06-26T05:44:37;17.96;79.63
69589;SHT31;56792;50.644;17.984;2023-06-26T05:47:05;18.12;79.46
69589;SHT31;56792;50.644;17.984;2023-06-26T05:49:34;18.24;79.40
69589;SHT31;56792;50.644;17.984;2023-06-26T05:52:03;18.35;79.02
69589;SHT31;56792;50.644;17.984;2023-06-26T05:54:34;18.44;78.74
69589;SHT31;56792;50.644;17.984;2023-06-26T05:57:04;18.56;78.59
69589;SHT31;56792;50.644;17.984;2023-06-26T05:59:33;18.67;78.22
69589;SHT31;56792;50.644;17.984;2023-06-26T06:02:09;18.80;77.86
69589;SHT31;56792;50.644;17.984;2023-06-26T06:04:38;18.94;77.61
69589;SHT31;56792;50.644;17.984;2023-06-26T06:07:06;19.07;77.31
69589;SHT31;56792;50.644;17.984;2023-06-26T06:09:35;19.20;77.24
69589;SHT31;56792;50.644;17.984;2023-06-26T06:12:04;19.30;76.71
69589;SHT31;56792;50.644;17.984;2023-06-26T06:14:34;19.41;76.40
69589;SHT31;56792;50.644;17.984;2023-06-26T06:17:03;19.56;75.96
69589;SHT31;56792;50.644;17.984;2023-06-26T06:19:31;19.74;75.58
69589;SHT31;56792;50.644;17.984;2023-06-26T06:21:59;19.87;75.33
69589;SHT31;56792;50.644;17.984;2023-06-26T06:24:28;19.99;75.32
69589;SHT31;56792;50.644;17.984;2023-06-26T06:26:56;20.13;74.68
69589;SHT31;56792;50.644;17.984;2023-06-26T06:29:25;20.28;73.98
69589;SHT31;56792;50.644;17.984;2023-06-26T06:31:53;20.42;74.04
69589;SHT31;56792;50.644;17.984;2023-06-26T06:34:21;20.58;73.86
69589;SHT31;56792;50.644;17.984;2023-06-26T06:36:49;20.73;73.15
69589;SHT31;56792;50.644;17.984;2023-06-26T06:39:17;20.93;72.53
69589;SHT31;56792;50.644;17.984;2023-06-26T06:41:46;21.13;71.89
69589;SHT31;56792;50.644;17.984;2023-06-26T06:44:14;21.32;71.04
69589;SHT31;56792;50.644;17.984;2023-06-26T06:46:42;21.48;70.89
69589;SHT31;56792;50.644;17.984;2023-06-26T06:49:11;21.62;70.48
69589;SHT31;56792;50.644;17.984;2023-06-26T06:51:40;21.81;70.52
69589;SHT31;56792;50.644;17.984;2023-06-26T06:54:10;22.01;70.02
69589;SHT31;56792;50.644;17.984;2023-06-26T06:56:38;22.19;69.38
69589;SHT31;56792;50.644;17.984;2023-06-26T06:59:07;22.34;70.30
69589;SHT31;56792;50.644;17.984;2023-06-26T07:01:35;22.49;68.93
69589;SHT31;56792;50.644;17.984;2023-06-26T07:04:05;22.68;68.11
69589;SHT31;56792;50.644;17.984;2023-06-26T07:06:33;22.86;67.96
69589;SHT31;56792;50.644;17.984;2023-06-26T07:09:02;23.06;67.68
69589;SHT31;56792;50.644;17.984;2023-06-26T07:11:31;23.21;66.58
69589;SHT31;56792;50.644;17.984;2023-06-26T07:13:59;23.33;66.48
69589;SHT31;56792;50.644;17.984;2023-06-26T07:16:29;23.49;65.49
69589;SHT31;56792;50.644;17.984;2023-06-26T07:18:57;23.63;64.25
69589;SHT31;56792;50.644;17.984;2023-06-26T07:21:25;23.75;64.13
69589;SHT31;56792;50.644;17.984;2023-06-26T07:23:53;23.92;63.71
69589;SHT31;56792;50.644;17.984;2023-06-26T07:26:21;24.04;62.87
69589;SHT31;56792;50.644;17.984;2023-06-26T07:28:50;24.18;63.07
69589;SHT31;56792;50.644;17.984;2023-06-26T07:31:18;24.36;63.21
69589;SHT31;56792;50.644;17.984;2023-06-26T07:33:46;24.53;61.77
69589;SHT31;56792;50.644;17.984;2023-06-26T07:36:15;24.72;60.94
69589;SHT31;56792;50.644;17.984;2023-06-26T07:38:43;24.90;60.64
69589;SHT31;56792;50.644;17.984;2023-06-26T07:41:11;25.11;61.01
69589;SHT31;56792;50.644;17.984;2023-06-26T07:43:39;25.29;60.02
69589;SHT31;56792;50.644;17.984;2023-06-26T07:46:07;25.42;59.33
69589;SHT31;56792;50.644;17.984;2023-06-26T07:48:36;25.56;59.42
69589;SHT31;56792;50.644;17.984;2023-06-26T07:51:04;25.69;57.66
69589;SHT31;56792;50.644;17.984;2023-06-26T07:53:32;25.84;56.24
69589;SHT31;56792;50.644;17.984;2023-06-26T07:56:00;26.06;56.65
69589;SHT31;56792;50.644;17.984;2023-06-26T07:58:29;26.28;56.40
69589;SHT31;56792;50.644;17.984;2023-06-26T08:00:57;26.45;55.81
69589;SHT31;56792;50.644;17.984;2023-06-26T08:03:25;26.58;55.67
69589;SHT31;56792;50.644;17.984;2023-06-26T08:05:53;26.70;53.58
69589;SHT31;56792;50.644;17.984;2023-06-26T08:08:21;26.80;53.16
69589;SHT31;56792;50.644;17.984;2023-06-26T08:10:50;26.96;53.87
69589;SHT31;56792;50.644;17.984;2023-06-26T08:13:18;27.10;51.82
69589;SHT31;56792;50.644;17.984;2023-06-26T08:15:46;27.20;50.38
69589;SHT31;56792;50.644;17.984;2023-06-26T08:18:14;27.22;48.74
69589;SHT31;56792;50.644;17.984;2023-06-26T08:20:43;27.21;48.04
69589;SHT31;56792;50.644;17.984;2023-06-26T08:23:12;27.22;47.57
69589;SHT31;56792;50.644;17.984;2023-06-26T08:25:40;27.41;47.45
69589;SHT31;56792;50.644;17.984;2023-06-26T08:28:09;27.50;46.02
69589;SHT31;56792;50.644;17.984;2023-06-26T08:30:37;27.60;47.36
69589;SHT31;56792;50.644;17.984;2023-06-26T08:33:05;27.75;45.32
69589;SHT31;56792;50.644;17.984;2023-06-26T08:35:38;27.85;44.85
69589;SHT31;56792;50.644;17.984;2023-06-26T08:38:06;27.98;45.23
69589;SHT31;56792;50.644;17.984;2023-06-26T08:40:35;27.96;42.56
69589;SHT31;56792;50.644;17.984;2023-06-26T08:43:04;27.72;43.07
69589;SHT31;56792;50.644;17.984;2023-06-26T08:45:32;27.59;43.63
69589;SHT31;56792;50.644;17.984;2023-06-26T08:48:01;27.62;44.14
69589;SHT31;56792;50.644;17.984;2023-06-26T08:50:35;27.76;42.07
69589;SHT31;56792;50.644;17.984;2023-06-26T08:53:08;27.86;42.03
69589;SHT31;56792;50.644;17.984;2023-06-26T08:55:46;28.10;43.02
69589;SHT31;56792;50.644;17.984;2023-06-26T08:58:19;28.34;43.06
69589;SHT31;56792;50.644;17.984;2023-06-26T09:00:48;28.59;43.37
69589;SHT31;56792;50.644;17.984;2023-06-26T09:03:16;28.74;42.21
69589;SHT31;56792;50.644;17.984;2023-06-26T09:05:46;28.82;41.78
69589;SHT31;56792;50.644;17.984;2023-06-26T09:08:14;28.91;41.33
69589;SHT31;56792;50.644;17.984;2023-06-26T09:10:42;29.07;40.94
69589;SHT31;56792;50.644;17.984;2023-06-26T09:13:11;29.29;41.71
69589;SHT31;56792;50.644;17.984;2023-06-26T09:15:40;29.53;41.87
69589;SHT31;56792;50.644;17.984;2023-06-26T09:18:11;29.80;42.28
69589;SHT31;56792;50.644;17.984;2023-06-26T09:20:39;30.10;42.15
69589;SHT31;56792;50.644;17.984;2023-06-26T09:23:07;30.36;42.92
69589;SHT31;56792;50.644;17.984;2023-06-26T09:25:37;30.57;41.64
69589;SHT31;56792;50.644;17.984;2023-06-26T09:28:07;30.73;41.27
69589;SHT31;56792;50.644;17.984;2023-06-26T09:30:36;30.94;41.69
69589;SHT31;56792;50.644;17.984;2023-06-26T09:33:14;31.15;41.38
69589;SHT31;56792;50.644;17.984;2023-06-26T09:35:43;31.32;39.28
69589;SHT31;56792;50.644;17.984;2023-06-26T09:38:13;31.45;38.54
69589;SHT31;56792;50.644;17.984;2023-06-26T09:40:41;31.53;37.07
69589;SHT31;56792;50.644;17.984;2023-06-26T09:43:09;31.48;36.92
69589;SHT31;56792;50.644;17.984;2023-06-26T09:45:40;31.49;38.83
69589;SHT31;56792;50.644;17.984;2023-06-26T09:48:09;31.61;36.21
69589;SHT31;56792;50.644;17.984;2023-06-26T09:50:41;31.55;35.11
69589;SHT31;56792;50.644;17.984;2023-06-26T09:53:09;31.41;34.86
69589;SHT31;56792;50.644;17.984;2023-06-26T09:55:39;31.42;35.63
69589;SHT31;56792;50.644;17.984;2023-06-26T09:58:10;31.55;35.61
69589;SHT31;56792;50.644;17.984;2023-06-26T10:00:40;31.39;35.22
69589;SHT31;56792;50.644;17.984;2023-06-26T10:03:09;31.42;35.94
69589;SHT31;56792;50.644;17.984;2023-06-26T10:05:38;31.30;33.76
69589;SHT31;56792;50.644;17.984;2023-06-26T10:08:07;31.04;34.62
69589;SHT31;56792;50.644;17.984;2023-06-26T10:10:36;30.91;34.64
69589;SHT31;56792;50.644;17.984;2023-06-26T10:13:07;30.69;35.18
69589;SHT31;56792;50.644;17.984;2023-06-26T10:15:41;30.61;35.28
69589;SHT31;56792;50.644;17.984;2023-06-26T10:18:14;30.56;35.65
69589;SHT31;56792;50.644;17.984;2023-06-26T10:20:45;30.76;37.10
69589;SHT31;56792;50.644;17.984;2023-06-26T10:23:16;31.03;37.25
69589;SHT31;56792;50.644;17.984;2023-06-26T10:25:50;31.24;37.86
69589;SHT31;56792;50.644;17.984;2023-06-26T10:28:21;31.45;38.65
69589;SHT31;56792;50.644;17.984;2023-06-26T10:30:52;31.63;38.47
69589;SHT31;56792;50.644;17.984;2023-06-26T10:33:21;31.79;37.38
69589;SHT31;56792;50.644;17.984;2023-06-26T10:35:50;31.82;35.09
69589;SHT31;56792;50.644;17.984;2023-06-26T10:38:19;31.82;35.10
69589;SHT31;56792;50.644;17.984;2023-06-26T10:40:47;31.81;34.05
69589;SHT31;56792;50.644;17.984;2023-06-26T10:43:17;31.84;34.38
69589;SHT31;56792;50.644;17.984;2023-06-26T10:45:45;31.99;35.39
69589;SHT31;56792;50.644;17.984;2023-06-26T10:48:18;32.12;33.49
69589;SHT31;56792;50.644;17.984;2023-06-26T10:50:47;32.16;34.01
69589;SHT31;56792;50.644;17.984;2023-06-26T10:53:21;32.27;33.86
69589;SHT31;56792;50.644;17.984;2023-06-26T10:55:55;32.32;34.23
69589;SHT31;56792;50.644;17.984;2023-06-26T10:58:30;32.49;34.74
69589;SHT31;56792;50.644;17.984;2023-06-26T11:01:19;32.69;35.87
69589;SHT31;56792;50.644;17.984;2023-06-26T11:04:00;32.84;33.72
69589;SHT31;56792;50.644;17.984;2023-06-26T11:06:32;32.83;33.69
69589;SHT31;56792;50.644;17.984;2023-06-26T11:09:07;32.93;34.08
69589;SHT31;56792;50.644;17.984;2023-06-26T11:11:56;33.07;31.95
69589;SHT31;56792;50.644;17.984;2023-06-26T11:14:28;33.11;33.15
69589;SHT31;56792;50.644;17.984;2023-06-26T11:16:58;33.15;33.16
69589;SHT31;56792;50.644;17.984;2023-06-26T11:19:29;33.21;31.89
69589;SHT31;56792;50.644;17.984;2023-06-26T11:22:03;33.16;31.27
69589;SHT31;56792;50.644;17.984;2023-06-26T11:24:32;33.19;31.36
69589;SHT31;56792;50.644;17.984;2023-06-26T11:27:01;33.19;31.65
69589;SHT31;56792;50.644;17.984;2023-06-26T11:29:32;33.25;31.56
69589;SHT31;56792;50.644;17.984;2023-06-26T11:32:01;33.15;30.67
69589;SHT31;56792;50.644;17.984;2023-06-26T11:34:33;33.16;31.22
69589;SHT31;56792;50.644;17.984;2023-06-26T11:37:03;33.21;31.66
69589;SHT31;56792;50.644;17.984;2023-06-26T11:39:33;33.31;31.25
69589;SHT31;56792;50.644;17.984;2023-06-26T11:42:04;33.42;30.70
69589;SHT31;56792;50.644;17.984;2023-06-26T11:44:32;33.45;30.41
69589;SHT31;56792;50.644;17.984;2023-06-26T11:47:09;33.34;30.92
69589;SHT31;56792;50.644;17.984;2023-06-26T11:49:42;33.47;32.50
69589;SHT31;56792;50.644;17.984;2023-06-26T11:52:12;33.63;32.65
69589;SHT31;56792;50.644;17.984;2023-06-26T11:54:41;33.73;30.90
69589;SHT31;56792;50.644;17.984;2023-06-26T11:57:13;33.60;29.90
69589;SHT31;56792;50.644;17.984;2023-06-26T11:59:43;33.57;29.71
69589;SHT31;56792;50.644;17.984;2023-06-26T12:02:12;33.44;29.39
69589;SHT31;56792;50.644;17.984;2023-06-26T12:04:41;33.14;28.84
69589;SHT31;56792;50.644;17.984;2023-06-26T12:07:11;33.07;29.45
69589;SHT31;56792;50.644;17.984;2023-06-26T12:09:41;33.26;29.65
69589;SHT31;56792;50.644;17.984;2023-06-26T12:12:13;33.38;29.88
69589;SHT31;56792;50.644;17.984;2023-06-26T12:14:44;33.39;29.49
69589;SHT31;56792;50.644;17.984;2023-06-26T12:17:13;33.44;30.37
69589;SHT31;56792;50.644;17.984;2023-06-26T12:19:43;33.65;31.27
69589;SHT31;56792;50.644;17.984;2023-06-26T12:22:13;33.95;31.81
69589;SHT31;56792;50.644;17.984;2023-06-26T12:24:43;34.26;30.98
69589;SHT31;56792;50.644;17.984;2023-06-26T12:27:13;34.55;30.56
69589;SHT31;56792;50.644;17.984;2023-06-26T12:29:48;34.64;29.93
69589;SHT31;56792;50.644;17.984;2023-06-26T12:32:19;34.33;29.28
69589;SHT31;56792;50.644;17.984;2023-06-26T12:34:49;34.11;29.25
69589;SHT31;56792;50.644;17.984;2023-06-26T12:37:18;34.03;29.51
69589;SHT31;56792;50.644;17.984;2023-06-26T12:39:47;34.00;29.57
69589;SHT31;56792;50.644;17.984;2023-06-26T12:42:18;34.00;30.07
69589;SHT31;56792;50.644;17.984;2023-06-26T12:44:49;33.97;29.70
69589;SHT31;56792;50.644;17.984;2023-06-26T12:47:19;33.74;29.36
69589;SHT31;56792;50.644;17.984;2023-06-26T12:49:52;33.52;29.45
69589;SHT31;56792;50.644;17.984;2023-06-26T12:52:22;33.40;29.15
69589;SHT31;56792;50.644;17.984;2023-06-26T12:54:51;33.18;29.29
69589;SHT31;56792;50.644;17.984;2023-06-26T12:57:22;33.13;29.42
69589;SHT31;56792;50.644;17.984;2023-06-26T12:59:50;33.24;29.96
69589;SHT31;56792;50.644;17.984;2023-06-26T13:02:18;33.22;29.45
69589;SHT31;56792;50.644;17.984;2023-06-26T13:04:47;32.77;29.98
69589;SHT31;56792;50.644;17.984;2023-06-26T13:07:15;32.50;30.10
69589;SHT31;56792;50.644;17.984;2023-06-26T13:09:44;32.34;30.53
69589;SHT31;56792;50.644;17.984;2023-06-26T13:12:14;32.51;30.77
69589;SHT31;56792;50.644;17.984;2023-06-26T13:14:42;32.57;30.52
69589;SHT31;56792;50.644;17.984;2023-06-26T13:17:11;32.64;30.76
69589;SHT31;56792;50.644;17.984;2023-06-26T13:19:39;32.62;30.25
69589;SHT31;56792;50.644;17.984;2023-06-26T13:22:07;32.47;31.08
69589;SHT31;56792;50.644;17.984;2023-06-26T13:24:36;32.60;31.78
69589;SHT31;56792;50.644;17.984;2023-06-26T13:27:05;32.53;30.23
69589;SHT31;56792;50.644;17.984;2023-06-26T13:29:33;32.25;30.24
69589;SHT31;56792;50.644;17.984;2023-06-26T13:32:02;32.08;30.43
69589;SHT31;56792;50.644;17.984;2023-06-26T13:34:32;31.92;30.82
69589;SHT31;56792;50.644;17.984;2023-06-26T13:37:00;32.00;31.92
69589;SHT31;56792;50.644;17.984;2023-06-26T13:39:29;32.17;32.31
69589;SHT31;56792;50.644;17.984;2023-06-26T13:41:57;32.37;33.28
69589;SHT31;56792;50.644;17.984;2023-06-26T13:44:26;32.47;32.79
69589;SHT31;56792;50.644;17.984;2023-06-26T13:46:54;32.56;33.45
69589;SHT31;56792;50.644;17.984;2023-06-26T13:49:22;32.67;32.58
69589;SHT31;56792;50.644;17.984;2023-06-26T13:51:50;32.70;32.15
69589;SHT31;56792;50.644;17.984;2023-06-26T13:54:19;32.71;32.10
69589;SHT31;56792;50.644;17.984;2023-06-26T13:56:47;32.68;30.95
69589;SHT31;56792;50.644;17.984;2023-06-26T13:59:15;32.44;30.28
69589;SHT31;56792;50.644;17.984;2023-06-26T14:01:44;32.21;31.49
69589;SHT31;56792;50.644;17.984;2023-06-26T14:04:12;32.22;31.42
69589;SHT31;56792;50.644;17.984;2023-06-26T14:06:40;32.18;31.07
69589;SHT31;56792;50.644;17.984;2023-06-26T14:09:08;32.00;30.61
69589;SHT31;56792;50.644;17.984;2023-06-26T14:11:36;31.75;30.48
69589;SHT31;56792;50.644;17.984;2023-06-26T14:14:05;31.65;31.07
69589;SHT31;56792;50.644;17.984;2023-06-26T14:16:33;31.45;30.75
69589;SHT31;56792;50.644;17.984;2023-06-26T14:19:01;31.17;31.03
69589;SHT31;56792;50.644;17.984;2023-06-26T14:21:30;31.15;31.85
69589;SHT31;56792;50.644;17.984;2023-06-26T14:23:59;31.16;31.22
69589;SHT31;56792;50.644;17.984;2023-06-26T14:26:28;31.08;31.78
69589;SHT31;56792;50.644;17.984;2023-06-26T14:28:58;31.14;32.30
69589;SHT31;56792;50.644;17.984;2023-06-26T14:31:26;31.22;32.62
69589;SHT31;56792;50.644;17.984;2023-06-26T14:33:54;31.27;32.33
69589;SHT31;56792;50.644;17.984;2023-06-26T14:36:24;31.33;32.44
69589;SHT31;56792;50.644;17.984;2023-06-26T14:38:53;31.34;32.11
69589;SHT31;56792;50.644;17.984;2023-06-26T14:41:21;31.27;31.65
69589;SHT31;56792;50.644;17.984;2023-06-26T14:43:51;31.22;31.42
69589;SHT31;56792;50.644;17.984;2023-06-26T14:46:19;31.14;31.95
69589;SHT31;56792;50.644;17.984;2023-06-26T14:48:48;31.03;31.95
69589;SHT31;56792;50.644;17.984;2023-06-26T14:51:17;30.95;31.87
69589;SHT31;56792;50.644;17.984;2023-06-26T14:53:45;30.89;32.32
69589;SHT31;56792;50.644;17.984;2023-06-26T14:56:13;30.90;32.13
69589;SHT31;56792;50.644;17.984;2023-06-26T14:58:41;30.84;31.93
69589;SHT31;56792;50.644;17.984;2023-06-26T15:01:12;30.75;31.83
69589;SHT31;56792;50.644;17.984;2023-06-26T15:03:41;30.68;32.21
69589;SHT31;56792;50.644;17.984;2023-06-26T15:06:09;30.63;33.09
69589;SHT31;56792;50.644;17.984;2023-06-26T15:08:38;30.62;33.72
69589;SHT31;56792;50.644;17.984;2023-06-26T15:11:06;30.58;32.68
69589;SHT31;56792;50.644;17.984;2023-06-26T15:13:34;30.55;32.86
69589;SHT31;56792;50.644;17.984;2023-06-26T15:16:02;30.50;32.77
69589;SHT31;56792;50.644;17.984;2023-06-26T15:18:31;30.50;32.86
69589;SHT31;56792;50.644;17.984;2023-06-26T15:20:59;30.41;32.42
69589;SHT31;56792;50.644;17.984;2023-06-26T15:23:28;30.29;32.73
69589;SHT31;56792;50.644;17.984;2023-06-26T15:25:56;30.25;32.92
69589;SHT31;56792;50.644;17.984;2023-06-26T15:28:25;30.17;32.88
69589;SHT31;56792;50.644;17.984;2023-06-26T15:30:53;30.05;33.22